sensor_id;sensor_type;location;lat;lon;timestamp;pressure;altitude;pressure_sealevel;temperature;humidity
17260;BME280;8746;49.230;9.220;2022-07-22T00:02:10;100306.00;;;18.57;78.39
17260;BME280;8746;49.230;9.220;2022-07-22T00:04:35;100305.81;;;18.60;77.94
17260;BME280;8746;49.230;9.220;2022-07-22T00:07:01;100309.84;;;18.53;77.61
17260;BME280;8746;49.230;9.220;2022-07-22T00:09:26;100310.28;;;18.47;77.79
17260;BME280;8746;49.230;9.220;2022-07-22T00:11:52;100313.88;;;18.33;78.75
17260;BME280;8746;49.230;9.220;2022-07-22T00:14:17;100321.06;;;18.18;79.52
17260;BME280;8746;49.230;9.220;2022-07-22T00:16:42;100319.19;;;18.20;79.42
17260;BME280;8746;49.230;9.220;2022-07-22T00:19:08;100317.28;;;18.22;79.08
17260;BME280;8746;49.230;9.220;2022-07-22T00:21:34;100313.31;;;18.27;78.94
17260;BME280;8746;49.230;9.220;2022-07-22T00:23:59;100307.38;;;18.37;78.23
17260;BME280;8746;49.230;9.220;2022-07-22T00:26:25;100308.56;;;18.46;77.24
17260;BME280;8746;49.230;9.220;2022-07-22T00:28:50;100308.38;;;18.49;76.62
17260;BME280;8746;49.230;9.220;2022-07-22T00:31:15;100301.72;;;18.54;76.28
17260;BME280;8746;49.230;9.220;2022-07-22T00:33:41;100295.97;;;18.61;76.34
17260;BME280;8746;49.230;9.220;2022-07-22T00:36:10;100304.94;;;18.47;76.26
17260;BME280;8746;49.230;9.220;2022-07-22T00:38:35;100308.53;;;18.33;77.67
17260;BME280;8746;49.230;9.220;2022-07-22T00:41:01;100302.13;;;18.35;78.15
17260;BME280;8746;49.230;9.220;2022-07-22T00:43:27;100305.53;;;18.24;78.47
17260;BME280;8746;49.230;9.220;2022-07-22T00:45:52;100297.28;;;18.15;78.82
17260;BME280;8746;49.230;9.220;2022-07-22T00:48:18;100305.47;;;18.12;79.18
17260;BME280;8746;49.230;9.220;2022-07-22T00:50:44;100298.28;;;17.85;80.12
17260;BME280;8746;49.230;9.220;2022-07-22T00:53:10;100304.38;;;18.01;79.56
17260;BME280;8746;49.230;9.220;2022-07-22T00:55:36;100304.09;;;17.91;80.36
17260;BME280;8746;49.230;9.220;2022-07-22T00:58:02;100304.84;;;17.93;80.04
17260;BME280;8746;49.230;9.220;2022-07-22T01:00:29;100303.22;;;17.91;79.84
17260;BME280;8746;49.230;9.220;2022-07-22T01:02:54;100302.84;;;17.97;79.67
17260;BME280;8746;49.230;9.220;2022-07-22T01:05:20;100307.22;;;17.98;79.50
17260;BME280;8746;49.230;9.220;2022-07-22T01:07:45;100300.19;;;17.97;79.62
17260;BME280;8746;49.230;9.220;2022-07-22T01:10:11;100305.63;;;17.96;79.90
17260;BME280;8746;49.230;9.220;2022-07-22T01:12:36;100306.50;;;17.96;79.82
17260;BME280;8746;49.230;9.220;2022-07-22T01:15:03;100298.56;;;17.94;79.69
17260;BME280;8746;49.230;9.220;2022-07-22T01:17:28;100304.78;;;17.95;79.50
17260;BME280;8746;49.230;9.220;2022-07-22T01:20:00;100299.81;;;17.89;79.46
17260;BME280;8746;49.230;9.220;2022-07-22T01:22:26;100300.22;;;17.83;80.14
17260;BME280;8746;49.230;9.220;2022-07-22T01:24:52;100302.88;;;17.83;79.72
17260;BME280;8746;49.230;9.220;2022-07-22T01:27:17;100308.66;;;17.89;79.81
17260;BME280;8746;49.230;9.220;2022-07-22T01:29:43;100307.06;;;17.87;78.96
17260;BME280;8746;49.230;9.220;2022-07-22T01:32:08;100303.06;;;17.79;79.76
17260;BME280;8746;49.230;9.220;2022-07-22T01:34:34;100307.84;;;17.74;80.93
17260;BME280;8746;49.230;9.220;2022-07-22T01:36:59;100310.38;;;17.63;81.44
17260;BME280;8746;49.230;9.220;2022-07-22T01:39:25;100307.78;;;17.61;81.71
17260;BME280;8746;49.230;9.220;2022-07-22T01:41:50;100302.09;;;17.53;82.05
17260;BME280;8746;49.230;9.220;2022-07-22T01:44:16;100307.81;;;17.47;81.84
17260;BME280;8746;49.230;9.220;2022-07-22T01:46:41;100309.03;;;17.56;81.58
17260;BME280;8746;49.230;9.220;2022-07-22T01:49:07;100302.75;;;17.57;80.87
17260;BME280;8746;49.230;9.220;2022-07-22T01:51:32;100311.97;;;17.66;80.79
17260;BME280;8746;49.230;9.220;2022-07-22T01:53:57;100319.22;;;17.63;80.99
17260;BME280;8746;49.230;9.220;2022-07-22T01:56:23;100315.69;;;17.63;80.78
17260;BME280;8746;49.230;9.220;2022-07-22T01:58:48;100308.44;;;17.65;80.45
17260;BME280;8746;49.230;9.220;2022-07-22T02:01:13;100308.47;;;17.51;80.54
17260;BME280;8746;49.230;9.220;2022-07-22T02:03:39;100308.56;;;17.49;80.74
17260;BME280;8746;49.230;9.220;2022-07-22T02:06:04;100304.84;;;17.52;80.69
17260;BME280;8746;49.230;9.220;2022-07-22T02:08:30;100304.44;;;17.58;80.38
17260;BME280;8746;49.230;9.220;2022-07-22T02:10:55;100302.34;;;17.63;80.15
17260;BME280;8746;49.230;9.220;2022-07-22T02:13:21;100297.22;;;17.60;79.95
17260;BME280;8746;49.230;9.220;2022-07-22T02:15:46;100299.47;;;17.66;79.51
17260;BME280;8746;49.230;9.220;2022-07-22T02:18:17;100299.25;;;17.27;81.96
17260;BME280;8746;49.230;9.220;2022-07-22T02:20:44;100299.53;;;17.23;82.00
17260;BME280;8746;49.230;9.220;2022-07-22T02:23:10;100293.06;;;17.27;82.06
17260;BME280;8746;49.230;9.220;2022-07-22T02:25:36;100294.09;;;17.10;82.22
17260;BME280;8746;49.230;9.220;2022-07-22T02:28:02;100291.94;;;17.17;81.97
17260;BME280;8746;49.230;9.220;2022-07-22T02:30:28;100295.72;;;17.12;82.04
17260;BME280;8746;49.230;9.220;2022-07-22T02:32:54;100299.16;;;17.14;82.09
17260;BME280;8746;49.230;9.220;2022-07-22T02:35:19;100294.09;;;17.10;81.79
17260;BME280;8746;49.230;9.220;2022-07-22T02:37:44;100298.66;;;17.08;81.98
17260;BME280;8746;49.230;9.220;2022-07-22T02:40:10;100293.81;;;17.00;82.04
17260;BME280;8746;49.230;9.220;2022-07-22T02:42:36;100283.34;;;17.11;81.64
17260;BME280;8746;49.230;9.220;2022-07-22T02:45:02;100286.78;;;17.13;80.14
17260;BME280;8746;49.230;9.220;2022-07-22T02:47:28;100293.06;;;17.12;80.37
17260;BME280;8746;49.230;9.220;2022-07-22T02:49:54;100301.25;;;17.09;80.16
17260;BME280;8746;49.230;9.220;2022-07-22T02:52:19;100293.03;;;16.98;80.64
17260;BME280;8746;49.230;9.220;2022-07-22T02:54:44;100290.38;;;16.98;80.83
17260;BME280;8746;49.230;9.220;2022-07-22T02:57:10;100297.81;;;17.07;80.70
17260;BME280;8746;49.230;9.220;2022-07-22T02:59:35;100300.50;;;17.07;80.38
17260;BME280;8746;49.230;9.220;2022-07-22T03:02:01;100305.03;;;17.05;80.39
17260;BME280;8746;49.230;9.220;2022-07-22T03:04:27;100305.25;;;17.02;80.58
17260;BME280;8746;49.230;9.220;2022-07-22T03:06:52;100293.06;;;17.12;80.36
17260;BME280;8746;49.230;9.220;2022-07-22T03:09:18;100290.97;;;17.18;80.31
17260;BME280;8746;49.230;9.220;2022-07-22T03:11:44;100295.34;;;17.19;80.18
17260;BME280;8746;49.230;9.220;2022-07-22T03:14:10;100298.31;;;17.14;80.18
17260;BME280;8746;49.230;9.220;2022-07-22T03:16:35;100305.53;;;17.12;80.54
17260;BME280;8746;49.230;9.220;2022-07-22T03:19:00;100300.09;;;17.13;80.49
17260;BME280;8746;49.230;9.220;2022-07-22T03:21:26;100301.66;;;17.18;80.25
17260;BME280;8746;49.230;9.220;2022-07-22T03:23:52;100309.53;;;17.05;81.11
17260;BME280;8746;49.230;9.220;2022-07-22T03:26:19;100302.53;;;16.88;81.56
17260;BME280;8746;49.230;9.220;2022-07-22T03:28:46;100303.75;;;16.82;82.05
17260;BME280;8746;49.230;9.220;2022-07-22T03:31:12;100308.78;;;16.72;82.13
17260;BME280;8746;49.230;9.220;2022-07-22T03:33:37;100308.03;;;16.70;82.22
17260;BME280;8746;49.230;9.220;2022-07-22T03:36:03;100313.25;;;16.72;82.04
17260;BME280;8746;49.230;9.220;2022-07-22T03:38:30;100310.19;;;16.63;82.24
17260;BME280;8746;49.230;9.220;2022-07-22T03:40:56;100321.63;;;16.65;82.01
17260;BME280;8746;49.230;9.220;2022-07-22T03:43:21;100323.41;;;16.65;82.05
17260;BME280;8746;49.230;9.220;2022-07-22T03:45:47;100314.09;;;16.72;81.85
17260;BME280;8746;49.230;9.220;2022-07-22T03:48:12;100313.94;;;16.75;81.57
17260;BME280;8746;49.230;9.220;2022-07-22T03:50:37;100317.38;;;16.77;81.03
17260;BME280;8746;49.230;9.220;2022-07-22T03:53:03;100311.06;;;16.78;81.03
17260;BME280;8746;49.230;9.220;2022-07-22T03:55:28;100301.75;;;16.86;80.36
17260;BME280;8746;49.230;9.220;2022-07-22T03:57:53;100306.72;;;16.77;80.76
17260;BME280;8746;49.230;9.220;2022-07-22T04:00:19;100309.38;;;16.77;80.90
17260;BME280;8746;49.230;9.220;2022-07-22T04:02:45;100315.66;;;16.76;80.83
17260;BME280;8746;49.230;9.220;2022-07-22T04:05:10;100311.44;;;16.72;80.89
17260;BME280;8746;49.230;9.220;2022-07-22T04:07:36;100313.56;;;16.81;80.85
17260;BME280;8746;49.230;9.220;2022-07-22T04:10:01;100311.75;;;16.82;80.82
17260;BME280;8746;49.230;9.220;2022-07-22T04:12:37;100304.22;;;16.74;81.10
17260;BME280;8746;49.230;9.220;2022-07-22T04:15:03;100308.06;;;16.85;80.83
17260;BME280;8746;49.230;9.220;2022-07-22T04:17:29;100301.34;;;16.93;80.58
17260;BME280;8746;49.230;9.220;2022-07-22T04:19:55;100307.34;;;16.97;80.52
17260;BME280;8746;49.230;9.220;2022-07-22T04:22:21;100311.16;;;17.07;80.30
17260;BME280;8746;49.230;9.220;2022-07-22T04:24:46;100304.69;;;16.97;80.29
17260;BME280;8746;49.230;9.220;2022-07-22T04:27:11;100299.25;;;16.98;80.26
17260;BME280;8746;49.230;9.220;2022-07-22T04:29:37;100303.34;;;17.04;80.13
17260;BME280;8746;49.230;9.220;2022-07-22T04:32:02;100307.16;;;17.00;80.55
17260;BME280;8746;49.230;9.220;2022-07-22T04:34:27;100310.75;;;16.99;80.97
17260;BME280;8746;49.230;9.220;2022-07-22T04:36:53;100306.69;;;16.93;80.90
17260;BME280;8746;49.230;9.220;2022-07-22T04:39:18;100306.81;;;16.90;81.23
17260;BME280;8746;49.230;9.220;2022-07-22T04:41:44;100314.38;;;16.98;81.04
17260;BME280;8746;49.230;9.220;2022-07-22T04:44:09;100306.38;;;16.98;81.21
17260;BME280;8746;49.230;9.220;2022-07-22T04:46:34;100309.06;;;17.12;80.92
17260;BME280;8746;49.230;9.220;2022-07-22T04:48:59;100310.97;;;17.10;81.13
17260;BME280;8746;49.230;9.220;2022-07-22T04:51:25;100310.19;;;17.08;81.04
17260;BME280;8746;49.230;9.220;2022-07-22T04:53:50;100313.63;;;17.10;81.04
17260;BME280;8746;49.230;9.220;2022-07-22T04:56:16;100297.66;;;17.10;81.03
17260;BME280;8746;49.230;9.220;2022-07-22T04:58:41;100299.34;;;17.11;81.31
17260;BME280;8746;49.230;9.220;2022-07-22T05:01:07;100292.69;;;17.04;81.87
17260;BME280;8746;49.230;9.220;2022-07-22T05:03:32;100291.63;;;17.21;81.57
17260;BME280;8746;49.230;9.220;2022-07-22T05:05:57;100302.00;;;17.40;80.79
17260;BME280;8746;49.230;9.220;2022-07-22T05:08:24;100292.00;;;17.29;80.87
17260;BME280;8746;49.230;9.220;2022-07-22T05:10:49;100297.03;;;17.49;80.77
17260;BME280;8746;49.230;9.220;2022-07-22T05:13:15;100301.22;;;17.53;80.78
17260;BME280;8746;49.230;9.220;2022-07-22T05:15:40;100303.19;;;17.63;80.16
17260;BME280;8746;49.230;9.220;2022-07-22T05:18:05;100302.25;;;17.65;79.56
17260;BME280;8746;49.230;9.220;2022-07-22T05:20:31;100301.44;;;17.50;80.55
17260;BME280;8746;49.230;9.220;2022-07-22T05:22:56;100294.16;;;17.52;80.36
17260;BME280;8746;49.230;9.220;2022-07-22T05:25:22;100300.78;;;17.73;80.02
17260;BME280;8746;49.230;9.220;2022-07-22T05:27:52;100301.31;;;17.93;78.62
17260;BME280;8746;49.230;9.220;2022-07-22T05:30:18;100309.50;;;18.04;78.05
17260;BME280;8746;49.230;9.220;2022-07-22T05:32:43;100306.59;;;18.22;77.29
17260;BME280;8746;49.230;9.220;2022-07-22T05:35:09;100304.09;;;18.19;77.30
17260;BME280;8746;49.230;9.220;2022-07-22T05:37:34;100302.31;;;18.32;77.41
17260;BME280;8746;49.230;9.220;2022-07-22T05:39:59;100304.47;;;18.40;76.82
17260;BME280;8746;49.230;9.220;2022-07-22T05:42:25;100296.03;;;18.33;76.58
17260;BME280;8746;49.230;9.220;2022-07-22T05:44:50;100300.66;;;18.44;76.20
17260;BME280;8746;49.230;9.220;2022-07-22T05:47:15;100298.56;;;18.62;75.88
17260;BME280;8746;49.230;9.220;2022-07-22T05:49:41;100305.81;;;18.60;75.49
17260;BME280;8746;49.230;9.220;2022-07-22T05:52:06;100297.50;;;18.65;75.12
17260;BME280;8746;49.230;9.220;2022-07-22T05:54:32;100302.84;;;18.65;75.55
17260;BME280;8746;49.230;9.220;2022-07-22T05:56:57;100296.63;;;18.77;74.89
17260;BME280;8746;49.230;9.220;2022-07-22T05:59:23;100302.84;;;18.65;75.22
17260;BME280;8746;49.230;9.220;2022-07-22T06:01:48;100305.53;;;18.90;75.04
17260;BME280;8746;49.230;9.220;2022-07-22T06:04:14;100307.22;;;18.79;74.91
17260;BME280;8746;49.230;9.220;2022-07-22T06:06:39;100310.22;;;18.87;74.76
17260;BME280;8746;49.230;9.220;2022-07-22T06:09:05;100306.81;;;19.11;74.07
17260;BME280;8746;49.230;9.220;2022-07-22T06:11:30;100307.16;;;19.19;73.92
17260;BME280;8746;49.230;9.220;2022-07-22T06:13:55;100303.16;;;19.37;72.27
17260;BME280;8746;49.230;9.220;2022-07-22T06:16:21;100307.34;;;19.42;72.38
17260;BME280;8746;49.230;9.220;2022-07-22T06:18:46;100300.72;;;19.34;71.89
17260;BME280;8746;49.230;9.220;2022-07-22T06:21:11;100300.78;;;19.46;71.74
17260;BME280;8746;49.230;9.220;2022-07-22T06:23:37;100300.78;;;19.46;71.62
17260;BME280;8746;49.230;9.220;2022-07-22T06:26:02;100299.50;;;19.38;72.28
17260;BME280;8746;49.230;9.220;2022-07-22T06:28:28;100301.31;;;19.51;71.10
17260;BME280;8746;49.230;9.220;2022-07-22T06:30:54;100302.38;;;19.48;71.45
17260;BME280;8746;49.230;9.220;2022-07-22T06:33:19;100298.19;;;19.57;70.50
17260;BME280;8746;49.230;9.220;2022-07-22T06:35:45;100301.03;;;19.80;70.53
17260;BME280;8746;49.230;9.220;2022-07-22T06:38:10;100291.16;;;19.80;70.06
17260;BME280;8746;49.230;9.220;2022-07-22T06:40:36;100292.25;;;19.78;69.91
17260;BME280;8746;49.230;9.220;2022-07-22T06:43:02;100294.16;;;19.89;69.84
17260;BME280;8746;49.230;9.220;2022-07-22T06:45:28;100294.34;;;19.98;69.30
17260;BME280;8746;49.230;9.220;2022-07-22T06:47:53;100295.81;;;20.02;68.73
17260;BME280;8746;49.230;9.220;2022-07-22T06:50:18;100293.91;;;20.16;68.58
17260;BME280;8746;49.230;9.220;2022-07-22T06:52:44;100292.22;;;20.15;67.83
17260;BME280;8746;49.230;9.220;2022-07-22T06:55:10;100295.16;;;20.23;68.21
17260;BME280;8746;49.230;9.220;2022-07-22T06:57:35;100290.78;;;20.22;67.85
17260;BME280;8746;49.230;9.220;2022-07-22T07:00:03;100286.44;;;20.32;68.07
17260;BME280;8746;49.230;9.220;2022-07-22T07:02:29;100280.53;;;20.52;66.93
17260;BME280;8746;49.230;9.220;2022-07-22T07:04:55;100282.00;;;20.44;67.33
17260;BME280;8746;49.230;9.220;2022-07-22T07:07:20;100273.97;;;20.56;67.35
17260;BME280;8746;49.230;9.220;2022-07-22T07:09:46;100268.97;;;20.62;67.73
17260;BME280;8746;49.230;9.220;2022-07-22T07:12:11;100274.31;;;20.51;67.26
17260;BME280;8746;49.230;9.220;2022-07-22T07:14:36;100268.88;;;20.64;67.21
17260;BME280;8746;49.230;9.220;2022-07-22T07:17:02;100268.50;;;20.69;67.03
17260;BME280;8746;49.230;9.220;2022-07-22T07:19:27;100263.13;;;20.57;67.32
17260;BME280;8746;49.230;9.220;2022-07-22T07:21:53;100246.72;;;20.73;66.84
17260;BME280;8746;49.230;9.220;2022-07-22T07:24:18;100250.50;;;20.82;66.19
17260;BME280;8746;49.230;9.220;2022-07-22T07:26:43;100248.84;;;20.81;66.63
17260;BME280;8746;49.230;9.220;2022-07-22T07:29:09;100246.13;;;21.04;66.15
17260;BME280;8746;49.230;9.220;2022-07-22T07:31:34;100239.06;;;21.25;65.07
17260;BME280;8746;49.230;9.220;2022-07-22T07:33:59;100236.63;;;21.22;65.27
17260;BME280;8746;49.230;9.220;2022-07-22T07:36:25;100240.03;;;21.24;64.76
17260;BME280;8746;49.230;9.220;2022-07-22T07:38:50;100232.72;;;21.26;64.88
17260;BME280;8746;49.230;9.220;2022-07-22T07:41:16;100230.13;;;21.48;65.10
17260;BME280;8746;49.230;9.220;2022-07-22T07:43:42;100231.56;;;21.52;64.03
17260;BME280;8746;49.230;9.220;2022-07-22T07:46:07;100236.63;;;21.34;64.46
17260;BME280;8746;49.230;9.220;2022-07-22T07:48:33;100231.72;;;21.39;64.32
17260;BME280;8746;49.230;9.220;2022-07-22T07:50:59;100237.09;;;21.39;63.44
17260;BME280;8746;49.230;9.220;2022-07-22T07:53:25;100229.28;;;21.58;63.73
17260;BME280;8746;49.230;9.220;2022-07-22T07:55:51;100228.53;;;21.56;63.49
17260;BME280;8746;49.230;9.220;2022-07-22T07:58:16;100222.84;;;21.82;63.41
17260;BME280;8746;49.230;9.220;2022-07-22T08:00:42;100223.16;;;22.00;62.92
17260;BME280;8746;49.230;9.220;2022-07-22T08:03:08;100230.53;;;22.19;62.39
17260;BME280;8746;49.230;9.220;2022-07-22T08:05:33;100215.63;;;22.36;61.06
17260;BME280;8746;49.230;9.220;2022-07-22T08:07:59;100223.31;;;22.41;60.75
17260;BME280;8746;49.230;9.220;2022-07-22T08:10:24;100219.41;;;22.45;60.56
17260;BME280;8746;49.230;9.220;2022-07-22T08:12:51;100220.31;;;22.55;60.27
17260;BME280;8746;49.230;9.220;2022-07-22T08:15:17;100215.56;;;22.69;59.90
17260;BME280;8746;49.230;9.220;2022-07-22T08:17:42;100215.59;;;22.79;60.33
17260;BME280;8746;49.230;9.220;2022-07-22T08:20:08;100207.16;;;22.83;59.59
17260;BME280;8746;49.230;9.220;2022-07-22T08:22:33;100202.84;;;22.71;59.10
17260;BME280;8746;49.230;9.220;2022-07-22T08:24:59;100206.50;;;22.70;60.12
17260;BME280;8746;49.230;9.220;2022-07-22T08:27:25;100207.41;;;22.80;59.58
17260;BME280;8746;49.230;9.220;2022-07-22T08:29:50;100208.09;;;23.13;59.11
17260;BME280;8746;49.230;9.220;2022-07-22T08:32:16;100203.00;;;23.10;58.96
17260;BME280;8746;49.230;9.220;2022-07-22T08:34:41;100197.97;;;23.27;59.16
17260;BME280;8746;49.230;9.220;2022-07-22T08:37:06;100195.47;;;23.45;58.43
17260;BME280;8746;49.230;9.220;2022-07-22T08:39:32;100190.38;;;23.42;57.90
17260;BME280;8746;49.230;9.220;2022-07-22T08:42:00;100192.91;;;23.43;57.63
17260;BME280;8746;49.230;9.220;2022-07-22T08:44:29;100190.66;;;23.48;57.80
17260;BME280;8746;49.230;9.220;2022-07-22T08:46:55;100196.78;;;23.70;57.42
17260;BME280;8746;49.230;9.220;2022-07-22T08:49:20;100192.06;;;23.72;57.48
17260;BME280;8746;49.230;9.220;2022-07-22T08:51:45;100188.13;;;23.86;56.81
17260;BME280;8746;49.230;9.220;2022-07-22T08:54:11;100180.19;;;23.84;56.69
17260;BME280;8746;49.230;9.220;2022-07-22T08:56:36;100179.63;;;24.10;56.54
17260;BME280;8746;49.230;9.220;2022-07-22T08:59:03;100177.34;;;24.15;56.95
17260;BME280;8746;49.230;9.220;2022-07-22T09:01:29;100174.47;;;24.27;56.09
17260;BME280;8746;49.230;9.220;2022-07-22T09:03:56;100172.53;;;24.19;55.35
17260;BME280;8746;49.230;9.220;2022-07-22T09:06:24;100170.78;;;24.28;55.34
17260;BME280;8746;49.230;9.220;2022-07-22T09:08:59;100171.72;;;24.56;55.35
17260;BME280;8746;49.230;9.220;2022-07-22T09:11:27;100170.75;;;24.47;54.53
17260;BME280;8746;49.230;9.220;2022-07-22T09:13:55;100167.72;;;24.60;54.85
17260;BME280;8746;49.230;9.220;2022-07-22T09:19:04;100169.22;;;24.83;53.49
17260;BME280;8746;49.230;9.220;2022-07-22T09:21:31;100161.63;;;24.68;53.33
17260;BME280;8746;49.230;9.220;2022-07-22T09:23:56;100164.25;;;24.88;53.78
17260;BME280;8746;49.230;9.220;2022-07-22T09:26:34;100175.03;;;25.16;52.86
17260;BME280;8746;49.230;9.220;2022-07-22T09:29:00;100166.94;;;25.16;51.92
17260;BME280;8746;49.230;9.220;2022-07-22T09:31:33;100171.56;;;25.23;52.19
17260;BME280;8746;49.230;9.220;2022-07-22T09:34:00;100172.34;;;25.43;52.26
17260;BME280;8746;49.230;9.220;2022-07-22T09:36:26;100162.53;;;25.42;52.19
17260;BME280;8746;49.230;9.220;2022-07-22T09:38:52;100166.69;;;25.55;51.73
17260;BME280;8746;49.230;9.220;2022-07-22T09:41:17;100160.53;;;25.63;51.48
17260;BME280;8746;49.230;9.220;2022-07-22T09:43:43;100156.28;;;25.78;51.00
17260;BME280;8746;49.230;9.220;2022-07-22T09:46:09;100158.13;;;25.77;50.13
17260;BME280;8746;49.230;9.220;2022-07-22T09:48:36;100155.31;;;26.05;50.01
17260;BME280;8746;49.230;9.220;2022-07-22T09:51:02;100150.00;;;26.14;49.13
17260;BME280;8746;49.230;9.220;2022-07-22T09:53:29;100134.25;;;26.35;49.17
17260;BME280;8746;49.230;9.220;2022-07-22T09:56:03;100132.50;;;26.61;47.67
17260;BME280;8746;49.230;9.220;2022-07-22T09:58:28;100134.13;;;26.45;47.20
17260;BME280;8746;49.230;9.220;2022-07-22T10:00:55;100136.28;;;25.89;47.69
17260;BME280;8746;49.230;9.220;2022-07-22T10:03:27;100122.81;;;26.50;48.16
17260;BME280;8746;49.230;9.220;2022-07-22T10:05:53;100122.63;;;26.78;47.55
17260;BME280;8746;49.230;9.220;2022-07-22T10:08:19;100127.16;;;27.12;47.17
17260;BME280;8746;49.230;9.220;2022-07-22T10:10:44;100123.88;;;27.51;45.86
17260;BME280;8746;49.230;9.220;2022-07-22T10:13:10;100119.81;;;27.72;45.04
17260;BME280;8746;49.230;9.220;2022-07-22T10:15:37;100120.47;;;27.82;45.16
17260;BME280;8746;49.230;9.220;2022-07-22T10:18:07;100116.75;;;27.91;44.70
17260;BME280;8746;49.230;9.220;2022-07-22T10:20:34;100114.19;;;27.98;43.15
17260;BME280;8746;49.230;9.220;2022-07-22T10:23:02;100115.06;;;27.98;43.11
17260;BME280;8746;49.230;9.220;2022-07-22T10:25:32;100106.94;;;28.07;43.55
17260;BME280;8746;49.230;9.220;2022-07-22T10:28:21;100099.28;;;28.19;42.22
17260;BME280;8746;49.230;9.220;2022-07-22T10:30:47;100102.47;;;28.39;41.89
17260;BME280;8746;49.230;9.220;2022-07-22T10:33:14;100090.50;;;28.65;41.88
17260;BME280;8746;49.230;9.220;2022-07-22T10:38:08;100094.59;;;29.32;40.80
17260;BME280;8746;49.230;9.220;2022-07-22T10:40:55;100098.34;;;29.22;39.82
17260;BME280;8746;49.230;9.220;2022-07-22T10:43:26;100095.22;;;29.34;40.13
17260;BME280;8746;49.230;9.220;2022-07-22T10:45:58;100094.13;;;28.88;40.92
17260;BME280;8746;49.230;9.220;2022-07-22T10:51:10;100093.81;;;29.15;40.41
17260;BME280;8746;49.230;9.220;2022-07-22T10:56:35;100087.06;;;29.34;39.58
17260;BME280;8746;49.230;9.220;2022-07-22T11:01:32;100069.50;;;30.36;38.93
17260;BME280;8746;49.230;9.220;2022-07-22T11:04:14;100065.44;;;30.47;38.37
17260;BME280;8746;49.230;9.220;2022-07-22T11:06:40;100070.50;;;30.80;37.87
17260;BME280;8746;49.230;9.220;2022-07-22T11:09:09;100056.72;;;31.03;37.07
17260;BME280;8746;49.230;9.220;2022-07-22T11:16:37;100055.22;;;30.19;37.55
17260;BME280;8746;49.230;9.220;2022-07-22T11:19:03;100051.69;;;31.22;36.70
17260;BME280;8746;49.230;9.220;2022-07-22T11:21:30;100043.97;;;31.25;36.64
17260;BME280;8746;49.230;9.220;2022-07-22T11:23:58;100045.00;;;31.46;35.81
17260;BME280;8746;49.230;9.220;2022-07-22T11:26:44;100042.59;;;31.36;35.51
17260;BME280;8746;49.230;9.220;2022-07-22T11:29:15;100036.69;;;31.32;35.52
17260;BME280;8746;49.230;9.220;2022-07-22T11:31:41;100026.56;;;31.48;34.76
17260;BME280;8746;49.230;9.220;2022-07-22T11:34:13;100025.28;;;31.72;33.86
17260;BME280;8746;49.230;9.220;2022-07-22T11:36:41;100020.34;;;31.83;34.84
17260;BME280;8746;49.230;9.220;2022-07-22T11:39:08;100017.13;;;32.07;32.69
17260;BME280;8746;49.230;9.220;2022-07-22T11:41:35;100020.97;;;32.61;33.09
17260;BME280;8746;49.230;9.220;2022-07-22T11:44:01;100011.97;;;32.74;33.07
17260;BME280;8746;49.230;9.220;2022-07-22T11:46:27;100010.47;;;32.58;32.40
17260;BME280;8746;49.230;9.220;2022-07-22T11:48:59;100002.31;;;31.88;33.69
17260;BME280;8746;49.230;9.220;2022-07-22T11:51:29;99998.53;;;31.83;33.76
17260;BME280;8746;49.230;9.220;2022-07-22T11:53:55;99995.84;;;31.39;34.21
17260;BME280;8746;49.230;9.220;2022-07-22T11:56:21;99990.56;;;31.31;34.92
17260;BME280;8746;49.230;9.220;2022-07-22T11:58:49;99985.84;;;31.68;34.09
17260;BME280;8746;49.230;9.220;2022-07-22T12:01:17;99981.50;;;32.16;33.71
17260;BME280;8746;49.230;9.220;2022-07-22T12:03:49;99977.78;;;32.92;32.84
17260;BME280;8746;49.230;9.220;2022-07-22T12:06:16;99978.25;;;33.16;32.05
17260;BME280;8746;49.230;9.220;2022-07-22T12:08:44;99976.34;;;33.50;31.21
17260;BME280;8746;49.230;9.220;2022-07-22T12:11:12;99967.72;;;34.45;30.40
17260;BME280;8746;49.230;9.220;2022-07-22T12:13:50;99971.69;;;33.77;30.66
17260;BME280;8746;49.230;9.220;2022-07-22T12:16:20;99965.75;;;34.00;30.75
17260;BME280;8746;49.230;9.220;2022-07-22T12:18:57;99964.53;;;34.80;29.75
17260;BME280;8746;49.230;9.220;2022-07-22T12:21:24;99949.13;;;34.54;29.80
17260;BME280;8746;49.230;9.220;2022-07-22T12:23:54;99963.53;;;34.75;29.25
17260;BME280;8746;49.230;9.220;2022-07-22T12:26:45;99948.63;;;35.72;27.52
17260;BME280;8746;49.230;9.220;2022-07-22T12:31:59;99947.41;;;35.68;27.10
17260;BME280;8746;49.230;9.220;2022-07-22T12:34:41;99941.97;;;36.35;26.45
17260;BME280;8746;49.230;9.220;2022-07-22T12:40:06;99936.91;;;36.20;26.45
17260;BME280;8746;49.230;9.220;2022-07-22T12:42:35;99947.66;;;36.03;27.22
17260;BME280;8746;49.230;9.220;2022-07-22T12:45:03;99940.34;;;36.77;25.47
17260;BME280;8746;49.230;9.220;2022-07-22T12:53:15;99929.16;;;35.29;28.04
17260;BME280;8746;49.230;9.220;2022-07-22T12:55:44;99924.69;;;35.60;28.16
17260;BME280;8746;49.230;9.220;2022-07-22T12:58:10;99924.63;;;36.35;27.24
17260;BME280;8746;49.230;9.220;2022-07-22T13:00:47;99920.13;;;37.37;25.24
17260;BME280;8746;49.230;9.220;2022-07-22T13:03:12;99917.16;;;38.44;23.86
17260;BME280;8746;49.230;9.220;2022-07-22T13:05:38;99908.44;;;39.71;22.28
17260;BME280;8746;49.230;9.220;2022-07-22T13:08:04;99913.63;;;39.11;23.05
17260;BME280;8746;49.230;9.220;2022-07-22T13:10:30;99904.16;;;39.81;21.87
17260;BME280;8746;49.230;9.220;2022-07-22T13:12:55;99909.19;;;39.84;22.16
17260;BME280;8746;49.230;9.220;2022-07-22T13:15:22;99901.38;;;40.80;21.43
17260;BME280;8746;49.230;9.220;2022-07-22T13:17:49;99911.06;;;40.28;21.28
17260;BME280;8746;49.230;9.220;2022-07-22T13:20:15;99909.63;;;39.75;21.55
17260;BME280;8746;49.230;9.220;2022-07-22T13:22:43;99908.47;;;38.98;23.38
17260;BME280;8746;49.230;9.220;2022-07-22T13:25:10;99900.75;;;39.00;22.73
17260;BME280;8746;49.230;9.220;2022-07-22T13:27:35;99899.97;;;39.56;21.49
17260;BME280;8746;49.230;9.220;2022-07-22T13:30:01;99900.47;;;38.51;23.02